Time;durP1;ratioP1;P1;durP2;ratioP2;P2;SDS_P1;SDS_P2;PMS_P1;PMS_P2;Temp;Humidity;BMP_temperature;BMP_pressure;BME280_temperature;BME280_humidity;BME280_pressure;Samples;Min_cycle;Max_cycle;Signal;HPM_P1;HPM_P2
2023/08/19 00:02:23;;;;;;;;;;;;;;;21.79;100.00;101182.78;10625794;27;19931;-70
2023/08/19 00:07:26;;;;;;;;;;;;;;;21.74;100.00;101185.06;10625542;27;20014;-70
2023/08/19 00:12:28;;;;;;;;;;;;;;;21.57;100.00;101193.88;10624802;27;19929;-70
2023/08/19 00:17:30;;;;;;;;;;;;;;;21.62;100.00;101191.59;10625305;28;19924;-70
2023/08/19 00:22:33;;;;;;;;;;;;;;;21.60;100.00;101188.25;10624660;28;20416;-70
2023/08/19 00:27:35;;;;;;;;;;;;;;;21.59;100.00;101186.59;10624022;28;19968;-70
2023/08/19 00:32:37;;;;;;;;;;;;;;;21.63;100.00;101188.78;10625112;28;19924;-70
2023/08/19 00:37:40;;;;;;;;;;;;;;;21.48;100.00;101188.44;10623691;28;20010;-69
2023/08/19 00:42:42;;;;;;;;;;;;;;;21.44;100.00;101173.75;10624921;28;19929;-69
2023/08/19 00:47:44;;;;;;;;;;;;;;;21.52;100.00;101181.84;10622811;28;19928;-70
2023/08/19 00:52:47;;;;;;;;;;;;;;;21.59;100.00;101183.94;10622914;28;19924;-70
2023/08/19 00:57:49;;;;;;;;;;;;;;;21.71;100.00;101172.06;10623384;28;20014;-69
2023/08/19 01:02:51;;;;;;;;;;;;;;;21.66;100.00;101159.19;10623325;28;19924;-69
2023/08/19 01:07:54;;;;;;;;;;;;;;;21.57;100.00;101159.25;10624382;28;19923;-70
2023/08/19 01:13:22;;;;;;;;;;;;;;;21.37;100.00;101164.69;10622424;28;20361;-69
2023/08/19 01:18:25;;;;;;;;;;;;;;;21.58;100.00;101164.41;10623057;27;19927;-69
2023/08/19 01:23:29;;;;;;;;;;;;;;;21.51;100.00;101180.16;10630602;27;19923;-70
2023/08/19 01:28:32;;;;;;;;;;;;;;;21.70;100.00;101171.22;10612702;27;20356;-70
2023/08/19 01:33:34;;;;;;;;;;;;;;;21.66;100.00;101164.50;10631331;27;19931;-70
2023/08/19 01:38:39;;;;;;;;;;;;;;;21.75;100.00;101160.09;10612303;27;19963;-69
2023/08/19 01:43:41;;;;;;;;;;;;;;;21.59;100.00;101150.13;10629257;27;19923;-70
2023/08/19 01:48:43;;;;;;;;;;;;;;;21.57;100.00;101146.78;10629734;27;19924;-70
2023/08/19 01:53:45;;;;;;;;;;;;;;;21.51;100.00;101152.69;10629976;27;19923;-70
2023/08/19 01:58:48;;;;;;;;;;;;;;;21.66;100.00;101145.03;10621495;22;19930;-71
2023/08/19 02:03:50;;;;;;;;;;;;;;;21.63;100.00;101137.34;10587576;28;19924;-71
2023/08/19 02:08:52;;;;;;;;;;;;;;;21.41;100.00;101138.59;10587397;28;19962;-71
2023/08/19 02:13:55;;;;;;;;;;;;;;;21.37;100.00;101140.72;10586433;28;20358;-71
2023/08/19 02:18:58;;;;;;;;;;;;;;;21.41;100.00;101131.41;10568172;28;19924;-71
2023/08/19 02:24:00;;;;;;;;;;;;;;;21.62;100.00;101125.00;10568627;28;19924;-71
2023/08/19 02:29:03;;;;;;;;;;;;;;;21.60;100.00;101122.50;10584806;28;20388;-71
2023/08/19 02:34:05;;;;;;;;;;;;;;;21.50;100.00;101105.72;10585611;28;19923;-71
2023/08/19 02:39:07;;;;;;;;;;;;;;;21.77;100.00;101109.31;10586138;28;19923;-71
2023/08/19 02:44:09;;;;;;;;;;;;;;;21.84;100.00;101100.53;10585244;28;19932;-71
2023/08/19 02:49:12;;;;;;;;;;;;;;;21.86;100.00;101098.56;10585649;28;19930;-71
2023/08/19 02:54:14;;;;;;;;;;;;;;;21.80;100.00;101106.34;10567335;28;19924;-71
2023/08/19 02:59:16;;;;;;;;;;;;;;;21.80;100.00;101109.00;10584691;28;19928;-71
2023/08/19 03:04:18;;;;;;;;;;;;;;;21.86;100.00;101101.22;10566337;28;20392;-71
2023/08/19 03:09:20;;;;;;;;;;;;;;;21.74;100.00;101098.94;10549353;28;19924;-71
2023/08/19 03:14:23;;;;;;;;;;;;;;;21.76;100.00;101097.81;10566514;28;19928;-71
2023/08/19 03:19:25;;;;;;;;;;;;;;;21.74;100.00;101093.63;10583820;28;19923;-71
2023/08/19 03:24:28;;;;;;;;;;;;;;;21.91;100.00;101086.63;10584283;28;19924;-71
2023/08/19 03:29:30;;;;;;;;;;;;;;;21.68;100.00;101084.41;10583469;28;19930;-71
2023/08/19 03:34:32;;;;;;;;;;;;;;;21.68;100.00;101081.75;10583208;28;19923;-71
2023/08/19 03:39:34;;;;;;;;;;;;;;;22.13;100.00;101086.09;10565665;28;20007;-71
2023/08/19 03:44:36;;;;;;;;;;;;;;;22.13;100.00;101080.75;10582677;28;20374;-71
2023/08/19 03:49:39;;;;;;;;;;;;;;;22.32;100.00;101079.72;10565419;28;19924;-71
2023/08/19 03:54:41;;;;;;;;;;;;;;;22.21;100.00;101072.81;10565207;28;19949;-72
2023/08/19 03:59:43;;;;;;;;;;;;;;;22.34;100.00;101076.91;10582604;28;19927;-71
2023/08/19 04:05:02;;;;;;;;;;;;;;;22.22;100.00;101071.78;10582433;28;19923;-71
2023/08/19 04:10:06;;;;;;;;;;;;;;;22.40;100.00;101074.44;10548535;28;19924;-71
2023/08/19 04:15:09;;;;;;;;;;;;;;;22.42;100.00;101072.44;10582143;28;19924;-71
2023/08/19 04:20:13;;;;;;;;;;;;;;;22.19;100.00;101056.13;10564111;28;19924;-71
2023/08/19 04:25:15;;;;;;;;;;;;;;;22.55;100.00;101057.84;10582637;28;19930;-71
2023/08/19 04:30:18;;;;;;;;;;;;;;;22.75;100.00;101048.56;10581862;28;19924;-72
2023/08/19 04:35:25;;;;;;;;;;;;;;;22.57;100.00;101058.50;10582325;28;19924;-71
2023/08/19 04:40:27;;;;;;;;;;;;;;;22.84;100.00;101057.44;10564382;28;19924;-71
2023/08/19 04:45:30;;;;;;;;;;;;;;;23.00;100.00;101041.47;10582218;28;19924;-71
2023/08/19 04:50:32;;;;;;;;;;;;;;;22.93;100.00;101050.28;10581480;28;20366;-71
2023/08/19 04:55:34;;;;;;;;;;;;;;;22.85;100.00;101045.78;10587413;28;19924;-71
2023/08/19 05:00:36;;;;;;;;;;;;;;;22.99;100.00;101045.13;10589377;28;19942;-71
2023/08/19 05:05:40;;;;;;;;;;;;;;;23.03;100.00;101056.31;10571839;28;20006;-71
2023/08/19 05:10:42;;;;;;;;;;;;;;;22.85;100.00;101064.47;10571632;28;19923;-71
2023/08/19 05:15:44;;;;;;;;;;;;;;;22.96;100.00;101058.81;10588772;28;20393;-71
2023/08/19 05:20:47;;;;;;;;;;;;;;;23.12;100.00;101066.06;10588660;28;20374;-71
2023/08/19 05:25:49;;;;;;;;;;;;;;;23.02;100.00;101075.19;10589132;28;19924;-71
2023/08/19 05:30:51;;;;;;;;;;;;;;;23.08;100.00;101079.91;10588906;28;19924;-71
2023/08/19 05:35:53;;;;;;;;;;;;;;;23.08;100.00;101086.09;10588600;28;19935;-71
2023/08/19 05:40:57;;;;;;;;;;;;;;;22.95;100.00;101086.50;10588520;28;19924;-71
2023/08/19 05:46:01;;;;;;;;;;;;;;;22.88;100.00;101074.81;10588344;28;19924;-71
2023/08/19 05:51:03;;;;;;;;;;;;;;;22.93;100.00;101077.84;10570083;28;19977;-71
2023/08/19 05:56:05;;;;;;;;;;;;;;;22.90;100.00;101080.81;10587238;28;19923;-71
2023/08/19 06:01:07;;;;;;;;;;;;;;;23.08;100.00;101086.09;10587119;28;19930;-71
2023/08/19 06:06:10;;;;;;;;;;;;;;;23.19;100.00;101082.25;10587339;28;19924;-71
2023/08/19 06:11:12;;;;;;;;;;;;;;;23.22;100.00;101086.44;10551824;28;20263;-71
2023/08/19 06:16:14;;;;;;;;;;;;;;;23.31;100.00;101088.94;10587039;28;19931;-71
2023/08/19 06:21:17;;;;;;;;;;;;;;;23.10;100.00;101093.91;10586276;28;20024;-71
2023/08/19 06:26:19;;;;;;;;;;;;;;;23.16;100.00;101102.09;10567984;28;20395;-71
2023/08/19 06:31:22;;;;;;;;;;;;;;;23.27;100.00;101092.97;10585795;28;19930;-71
2023/08/19 06:36:28;;;;;;;;;;;;;;;23.40;100.00;101096.97;10568279;28;19924;-71
2023/08/19 06:41:32;;;;;;;;;;;;;;;23.31;100.00;101088.13;10586130;28;19924;-71
2023/08/19 06:46:34;;;;;;;;;;;;;;;23.56;100.00;101097.00;10567243;28;19946;-71
2023/08/19 06:51:36;;;;;;;;;;;;;;;23.72;100.00;101096.16;10550745;28;19924;-71
2023/08/19 06:56:43;;;;;;;;;;;;;;;23.80;98.14;101084.66;10585051;28;19923;-71
2023/08/19 07:01:47;;;;;;;;;;;;;;;23.99;97.30;101108.41;10584642;28;19923;-71
2023/08/19 07:06:50;;;;;;;;;;;;;;;23.97;95.80;101113.06;10549446;28;20392;-71
2023/08/19 07:11:52;;;;;;;;;;;;;;;24.21;95.81;101114.88;10566179;28;19924;-71
2023/08/19 07:16:55;;;;;;;;;;;;;;;24.24;97.54;101119.91;10583309;28;19924;-71
2023/08/19 07:21:57;;;;;;;;;;;;;;;23.91;95.14;101113.75;10584374;28;19924;-71
2023/08/19 07:27:00;;;;;;;;;;;;;;;24.23;95.02;101122.75;10548786;28;20375;-71
2023/08/19 07:32:03;;;;;;;;;;;;;;;24.30;96.20;101127.22;10565391;28;19924;-71
2023/08/19 07:37:05;;;;;;;;;;;;;;;24.45;94.22;101131.91;10565184;28;19931;-71
2023/08/19 07:42:08;;;;;;;;;;;;;;;24.38;93.42;101130.91;10583746;28;19950;-71
2023/08/19 07:47:10;;;;;;;;;;;;;;;24.75;93.07;101132.19;10582933;28;20285;-71
2023/08/19 07:52:12;;;;;;;;;;;;;;;25.16;91.74;101137.34;10565350;28;19923;-71
2023/08/19 07:57:14;;;;;;;;;;;;;;;25.06;92.62;101136.72;10582366;28;20285;-72
2023/08/19 08:02:18;;;;;;;;;;;;;;;25.67;90.02;101132.34;10583153;28;19924;-72
2023/08/19 08:07:20;;;;;;;;;;;;;;;25.98;88.14;101146.72;10582438;28;20030;-71
2023/08/19 08:12:23;;;;;;;;;;;;;;;26.17;88.08;101146.19;10582864;28;20119;-72
2023/08/19 08:17:25;;;;;;;;;;;;;;;27.11;83.51;101140.25;10582691;28;19930;-72
2023/08/19 08:22:28;;;;;;;;;;;;;;;27.82;80.78;101144.94;10564005;28;20371;-72
2023/08/19 08:27:30;;;;;;;;;;;;;;;27.33;82.89;101168.03;10583098;28;20282;-72
2023/08/19 08:32:32;;;;;;;;;;;;;;;27.39;79.48;101175.34;10572536;28;19988;-71
2023/08/19 08:37:35;;;;;;;;;;;;;;;27.90;79.80;101171.72;10590411;28;19931;-71
2023/08/19 08:42:37;;;;;;;;;;;;;;;27.61;80.97;101178.91;10572164;28;20370;-71
2023/08/19 08:47:40;;;;;;;;;;;;;;;26.77;87.28;101181.19;10572579;28;19923;-71
2023/08/19 08:52:42;;;;;;;;;;;;;;;26.90;89.06;101181.34;10572498;28;19938;-70
2023/08/19 08:57:44;;;;;;;;;;;;;;;26.72;91.11;101189.78;10589359;28;19924;-70
2023/08/19 09:02:48;;;;;;;;;;;;;;;26.42;97.55;101215.75;10589533;28;19924;-71
2023/08/19 09:07:50;;;;;;;;;;;;;;;26.22;98.51;101205.50;10589971;28;19930;-72
2023/08/19 09:12:57;;;;;;;;;;;;;;;26.10;100.00;101237.31;10571119;28;20379;-71
2023/08/19 09:17:59;;;;;;;;;;;;;;;26.29;99.17;101246.72;10571046;28;20394;-71
2023/08/19 09:23:05;;;;;;;;;;;;;;;26.29;92.31;101241.34;10589513;28;20014;-71
2023/08/19 09:28:15;;;;;;;;;;;;;;;25.91;97.28;101238.59;10588658;28;20374;-72
2023/08/19 09:33:19;;;;;;;;;;;;;;;25.76;100.00;101238.53;10570939;28;19923;-70
2023/08/19 09:38:23;;;;;;;;;;;;;;;25.91;100.00;101281.50;10569420;28;19924;-70
2023/08/19 09:43:25;;;;;;;;;;;;;;;25.61;100.00;101295.78;10587839;28;20289;-70
2023/08/19 09:48:27;;;;;;;;;;;;;;;25.47;100.00;101308.91;10570167;28;19923;-70
2023/08/19 09:53:32;;;;;;;;;;;;;;;25.79;100.00;101282.94;10587382;28;19978;-70
2023/08/19 09:58:35;;;;;;;;;;;;;;;26.03;100.00;101273.91;10586908;28;19998;-70
2023/08/19 10:03:37;;;;;;;;;;;;;;;26.47;100.00;101267.03;10587636;28;19924;-70
2023/08/19 10:08:40;;;;;;;;;;;;;;;27.66;96.95;101260.88;10587424;28;19924;-70
2023/08/19 10:13:43;;;;;;;;;;;;;;;27.65;93.87;101272.66;10569178;28;19924;-70
2023/08/19 10:18:45;;;;;;;;;;;;;;;28.02;87.35;101277.00;10586366;28;20367;-71
2023/08/19 10:23:48;;;;;;;;;;;;;;;27.49;86.88;101285.28;10568152;28;20278;-70
2023/08/19 10:29:06;;;;;;;;;;;;;;;28.07;85.23;101293.41;10586595;28;19924;-70
2023/08/19 10:34:10;;;;;;;;;;;;;;;28.33;82.05;101313.56;10586424;28;20015;-70
2023/08/19 10:39:15;;;;;;;;;;;;;;;28.50;80.90;101314.94;10586283;28;19924;-71
2023/08/19 10:44:24;;;;;;;;;;;;;;;28.59;78.30;101323.72;10567928;28;19931;-70
2023/08/19 10:49:26;;;;;;;;;;;;;;;27.98;81.97;101321.47;10567708;28;20367;-70
2023/08/19 10:54:30;;;;;;;;;;;;;;;28.19;81.24;101320.63;10566309;28;19923;-70
2023/08/19 10:59:32;;;;;;;;;;;;;;;28.62;82.00;101327.91;10584686;28;19924;-70
2023/08/19 11:04:37;;;;;;;;;;;;;;;28.96;78.95;101329.00;10567109;28;19931;-71
2023/08/19 11:09:47;;;;;;;;;;;;;;;28.66;80.70;101340.78;10566264;28;20432;-70
2023/08/19 11:14:50;;;;;;;;;;;;;;;28.44;81.19;101347.19;10584207;28;19956;-70
2023/08/19 11:19:52;;;;;;;;;;;;;;;28.19;83.53;101368.28;10565978;28;20290;-70
2023/08/19 11:24:55;;;;;;;;;;;;;;;27.88;85.03;101393.56;10584408;28;19924;-70
2023/08/19 11:29:57;;;;;;;;;;;;;;;27.42;90.50;101391.94;10584215;28;19938;-70
2023/08/19 11:34:59;;;;;;;;;;;;;;;27.27;92.93;101402.63;10565831;28;19930;-70
2023/08/19 11:40:05;;;;;;;;;;;;;;;26.84;91.35;101423.84;10583232;28;19930;-70
2023/08/19 11:45:19;;;;;;;;;;;;;;;26.48;91.56;101443.22;10583024;28;20386;-70
2023/08/19 11:50:21;;;;;;;;;;;;;;;26.86;91.23;101454.91;10583482;28;19923;-70
2023/08/19 11:55:25;;;;;;;;;;;;;;;26.35;93.58;101481.38;10582629;28;20371;-70
2023/08/19 12:00:27;;;;;;;;;;;;;;;26.14;92.93;101501.59;10564439;28;19930;-70
2023/08/19 12:05:30;;;;;;;;;;;;;;;26.47;91.06;101509.47;10582709;28;19924;-70
2023/08/19 12:10:40;;;;;;;;;;;;;;;26.05;89.64;101521.41;10582171;28;20293;-70
2023/08/19 12:15:42;;;;;;;;;;;;;;;25.62;91.93;101515.47;10564787;28;19993;-70
2023/08/19 12:20:45;;;;;;;;;;;;;;;25.68;93.07;101530.00;10564646;28;20007;-70
2023/08/19 12:25:48;;;;;;;;;;;;;;;25.31;92.55;101552.81;10563975;28;19923;-70
2023/08/19 12:30:50;;;;;;;;;;;;;;;25.49;92.41;101558.03;10582512;28;19924;-70
2023/08/19 12:35:53;;;;;;;;;;;;;;;25.48;92.10;101562.53;10563786;28;20377;-70
2023/08/19 12:41:06;;;;;;;;;;;;;;;25.62;91.06;101569.06;10581755;28;19924;-70
2023/08/19 12:46:08;;;;;;;;;;;;;;;25.54;90.92;101604.75;10582256;28;19924;-70
2023/08/19 12:51:10;;;;;;;;;;;;;;;25.41;92.25;101617.81;10582105;28;19930;-70
2023/08/19 12:56:12;;;;;;;;;;;;;;;25.21;93.56;101599.31;10581981;28;19927;-70
2023/08/19 13:01:15;;;;;;;;;;;;;;;25.12;96.13;101615.56;10563175;28;20014;-70
2023/08/19 13:06:17;;;;;;;;;;;;;;;24.81;94.38;101630.38;10581205;28;19924;-70
2023/08/19 13:11:19;;;;;;;;;;;;;;;25.10;93.28;101599.66;10563148;28;19924;-70
2023/08/19 13:16:21;;;;;;;;;;;;;;;25.27;88.80;101605.91;10586458;28;19924;-70
2023/08/19 13:21:24;;;;;;;;;;;;;;;24.83;88.46;101620.34;10588730;28;20328;-70
2023/08/19 13:26:26;;;;;;;;;;;;;;;24.52;88.55;101611.97;10588513;28;19932;-69
2023/08/19 13:31:28;;;;;;;;;;;;;;;24.83;87.11;101620.34;10588366;28;19930;-70
2023/08/19 13:36:30;;;;;;;;;;;;;;;24.53;88.92;101636.88;10569951;28;19949;-70
2023/08/19 13:41:33;;;;;;;;;;;;;;;24.65;85.39;101635.66;10589158;28;19923;-70
2023/08/19 13:46:35;;;;;;;;;;;;;;;24.43;86.91;101648.56;10569672;28;19947;-70
2023/08/19 13:51:37;;;;;;;;;;;;;;;24.24;90.62;101671.03;10569494;28;20354;-70
2023/08/19 13:56:43;;;;;;;;;;;;;;;24.04;91.31;101678.41;10587516;28;19924;-70
2023/08/19 14:01:45;;;;;;;;;;;;;;;24.20;92.44;101669.66;10569733;28;19930;-70
2023/08/19 14:06:48;;;;;;;;;;;;;;;23.97;96.94;101673.81;10586917;28;19923;-70
2023/08/19 14:11:50;;;;;;;;;;;;;;;23.86;95.53;101682.94;10598636;22;19946;-71
2023/08/19 14:16:53;;;;;;;;;;;;;;;23.44;95.17;101703.06;10586605;28;20429;-71
2023/08/19 14:21:55;;;;;;;;;;;;;;;23.55;100.00;101640.50;10569045;28;19923;-72
2023/08/19 14:26:57;;;;;;;;;;;;;;;23.18;100.00;101756.34;10568603;28;19928;-71
2023/08/19 14:32:00;;;;;;;;;;;;;;;23.33;100.00;101677.41;10585996;28;20370;-71
2023/08/19 14:37:05;;;;;;;;;;;;;;;23.65;100.00;101718.78;10568093;28;20427;-71
2023/08/19 14:42:07;;;;;;;;;;;;;;;24.14;100.00;101662.28;10585686;28;20374;-71
2023/08/19 14:47:09;;;;;;;;;;;;;;;24.21;89.78;101683.84;10567881;28;19924;-70
2023/08/19 14:52:16;;;;;;;;;;;;;;;24.70;87.48;101681.53;10585708;28;20002;-70
2023/08/19 14:57:18;;;;;;;;;;;;;;;24.51;88.45;101676.38;10584906;28;19924;-70
2023/08/19 15:02:24;;;;;;;;;;;;;;;24.49;84.05;101665.81;10585347;28;19923;-70
2023/08/19 15:07:26;;;;;;;;;;;;;;;24.92;83.41;101664.06;10550374;28;19930;-70
2023/08/19 15:12:29;;;;;;;;;;;;;;;24.43;80.51;101672.66;10584096;28;19930;-70
2023/08/19 15:17:31;;;;;;;;;;;;;;;26.51;75.64;101676.44;10565903;28;20289;-70
2023/08/19 15:22:34;;;;;;;;;;;;;;;25.29;73.19;101684.28;10584515;28;19927;-70
2023/08/19 15:27:38;;;;;;;;;;;;;;;25.44;75.31;101687.19;10565598;28;20370;-70
2023/08/19 15:32:49;;;;;;;;;;;;;;;24.72;76.13;101687.56;10566346;28;19998;-69
2023/08/19 15:37:51;;;;;;;;;;;;;;;25.08;78.25;101692.72;10564730;28;20007;-70
2023/08/19 15:42:55;;;;;;;;;;;;;;;24.82;78.20;101706.19;10564566;28;21387;-70
2023/08/19 15:47:58;;;;;;;;;;;;;;;24.38;76.45;101719.63;10583014;28;19924;-69
2023/08/19 15:53:00;;;;;;;;;;;;;;;24.91;76.98;101715.09;10564716;28;20428;-68
2023/08/19 15:58:02;;;;;;;;;;;;;;;24.50;77.10;101704.16;10583201;28;20014;-68
2023/08/19 16:03:04;;;;;;;;;;;;;;;23.67;77.90;101716.81;10582482;28;19923;-68
2023/08/19 16:08:07;;;;;;;;;;;;;;;24.43;77.17;101725.34;10565070;28;19924;-68
2023/08/19 16:13:09;;;;;;;;;;;;;;;25.37;74.64;101718.34;10582565;28;19923;-68
2023/08/19 16:18:12;;;;;;;;;;;;;;;25.83;71.84;101713.38;10582190;28;19924;-67
2023/08/19 16:23:14;;;;;;;;;;;;;;;24.95;72.89;101719.97;10582779;28;19927;-67
2023/08/19 16:28:16;;;;;;;;;;;;;;;24.69;77.22;101725.38;10582633;28;19923;-67
2023/08/19 16:33:18;;;;;;;;;;;;;;;26.07;74.32;101717.09;10582558;28;19923;-67
2023/08/19 16:38:21;;;;;;;;;;;;;;;25.31;74.68;101727.84;10581754;28;19924;-67
2023/08/19 16:43:23;;;;;;;;;;;;;;;25.14;76.49;101723.41;10582343;28;19930;-67
2023/08/19 16:48:25;;;;;;;;;;;;;;;25.50;75.38;101725.88;10583264;28;19930;-68
2023/08/19 16:53:28;;;;;;;;;;;;;;;25.58;75.04;101734.78;10589928;28;19930;-68
2023/08/19 16:58:30;;;;;;;;;;;;;;;25.11;74.28;101735.28;10589605;28;19945;-68
2023/08/19 17:03:32;;;;;;;;;;;;;;;25.14;76.71;101747.53;10590137;28;19924;-67
2023/08/19 17:08:35;;;;;;;;;;;;;;;24.00;79.38;101745.72;10589213;28;20034;-67
2023/08/19 17:13:38;;;;;;;;;;;;;;;24.41;78.69;101744.25;10570758;28;20277;-67
2023/08/19 17:18:40;;;;;;;;;;;;;;;24.81;77.31;101748.22;10570747;28;20306;-67
2023/08/19 17:23:42;;;;;;;;;;;;;;;24.91;80.03;101750.75;10589343;28;19923;-67
2023/08/19 17:28:44;;;;;;;;;;;;;;;25.00;78.23;101754.34;10588561;28;19928;-67
2023/08/19 17:33:47;;;;;;;;;;;;;;;24.50;80.10;101763.88;10588311;28;20006;-67
2023/08/19 17:38:50;;;;;;;;;;;;;;;24.34;78.86;101761.91;10588666;28;19927;-67
2023/08/19 17:43:52;;;;;;;;;;;;;;;23.86;82.48;101757.81;10587923;28;19930;-67
2023/08/19 17:48:54;;;;;;;;;;;;;;;23.54;85.80;101761.78;10587631;28;20294;-67
2023/08/19 17:53:56;;;;;;;;;;;;;;;23.32;89.89;101776.41;10588105;28;19930;-67
2023/08/19 17:58:59;;;;;;;;;;;;;;;23.21;89.36;101782.75;10587406;28;19924;-67
2023/08/19 18:04:01;;;;;;;;;;;;;;;22.80;92.62;101790.19;10587143;28;20362;-67
2023/08/19 18:09:04;;;;;;;;;;;;;;;22.53;96.18;101796.28;10587502;28;19924;-67
2023/08/19 18:14:07;;;;;;;;;;;;;;;22.62;95.24;101804.25;10586974;28;19923;-67
2023/08/19 18:19:12;;;;;;;;;;;;;;;22.24;99.01;101810.41;10586533;28;20011;-67
2023/08/19 18:24:14;;;;;;;;;;;;;;;22.24;100.00;101815.75;10586215;28;20465;-68
2023/08/19 18:29:16;;;;;;;;;;;;;;;22.23;100.00;101814.91;10586757;28;19923;-68
2023/08/19 18:34:18;;;;;;;;;;;;;;;22.05;100.00;101820.09;10586465;28;20002;-67
2023/08/19 18:39:22;;;;;;;;;;;;;;;21.96;100.00;101830.75;10585614;28;20483;-68
2023/08/19 18:44:24;;;;;;;;;;;;;;;21.67;100.00;101831.50;10586133;28;19928;-68
2023/08/19 18:49:26;;;;;;;;;;;;;;;21.55;100.00;101849.41;10585301;28;20406;-68
2023/08/19 18:54:29;;;;;;;;;;;;;;;21.27;100.00;101850.97;10585689;28;19931;-68
2023/08/19 18:59:31;;;;;;;;;;;;;;;21.34;100.00;101842.28;10584794;28;20397;-68
2023/08/19 19:04:34;;;;;;;;;;;;;;;21.20;100.00;101858.66;10567280;28;19930;-68
2023/08/19 19:09:36;;;;;;;;;;;;;;;21.02;100.00;101865.53;10584424;28;19930;-68
2023/08/19 19:14:38;;;;;;;;;;;;;;;20.74;100.00;101870.53;10583201;28;19932;-67
2023/08/19 19:19:41;;;;;;;;;;;;;;;20.87;100.00;101870.34;10584663;28;19931;-67
2023/08/19 19:24:43;;;;;;;;;;;;;;;20.70;100.00;101882.41;10583825;28;19923;-68
2023/08/19 19:29:45;;;;;;;;;;;;;;;20.68;100.00;101882.53;10583588;28;20389;-68
2023/08/19 19:34:47;;;;;;;;;;;;;;;20.34;100.00;101884.41;10583420;28;19924;-68
2023/08/19 19:39:50;;;;;;;;;;;;;;;20.47;100.00;101886.94;10583212;28;19924;-68
2023/08/19 19:44:52;;;;;;;;;;;;;;;20.33;100.00;101885.41;10548337;28;20370;-68
2023/08/19 19:49:55;;;;;;;;;;;;;;;20.17;100.00;101880.47;10564985;28;20378;-68
2023/08/19 19:54:57;;;;;;;;;;;;;;;20.21;100.00;101874.81;10582805;28;20293;-68
2023/08/19 19:59:59;;;;;;;;;;;;;;;19.98;100.00;101876.66;10564538;28;19984;-68
2023/08/19 20:05:02;;;;;;;;;;;;;;;19.91;100.00;101891.41;10583190;28;19924;-68
2023/08/19 20:10:04;;;;;;;;;;;;;;;19.77;100.00;101895.19;10564413;28;20392;-67
2023/08/19 20:15:25;;;;;;;;;;;;;;;19.79;100.00;101903.03;10581993;28;20014;-67
2023/08/19 20:20:31;;;;;;;;;;;;;;;19.72;100.00;101910.59;10582082;28;19963;-67
2023/08/19 20:25:33;;;;;;;;;;;;;;;19.61;100.00;101915.91;10592806;28;19924;-67
2023/08/19 20:30:35;;;;;;;;;;;;;;;19.71;100.00;101927.50;10596741;28;19928;-68
2023/08/19 20:35:42;;;;;;;;;;;;;;;19.56;100.00;101926.03;10596049;28;20378;-68
2023/08/19 20:40:44;;;;;;;;;;;;;;;19.55;100.00;101925.22;10595700;28;19923;-68
2023/08/19 20:45:52;;;;;;;;;;;;;;;19.44;100.00;101928.69;10596432;28;19930;-68
2023/08/19 20:50:55;;;;;;;;;;;;;;;19.42;100.00;101941.22;10577648;28;20398;-68
2023/08/19 20:55:57;;;;;;;;;;;;;;;19.35;100.00;101941.81;10596146;28;19974;-68
2023/08/19 21:00:59;;;;;;;;;;;;;;;19.22;100.00;101941.91;10595995;28;19930;-68
2023/08/19 21:06:04;;;;;;;;;;;;;;;19.24;100.00;101940.81;10577958;28;19923;-68
2023/08/19 21:11:06;;;;;;;;;;;;;;;19.10;100.00;101946.34;10595301;28;19946;-68
2023/08/19 21:16:08;;;;;;;;;;;;;;;19.08;100.00;101943.81;10595278;28;19930;-68
2023/08/19 21:21:11;;;;;;;;;;;;;;;19.21;100.00;101951.66;10595734;28;19923;-68
2023/08/19 21:26:13;;;;;;;;;;;;;;;19.11;100.00;101962.16;10595645;28;19969;-68
2023/08/19 21:31:15;;;;;;;;;;;;;;;19.18;100.00;101956.38;10595100;28;20396;-68
2023/08/19 21:36:18;;;;;;;;;;;;;;;19.12;100.00;101965.66;10590571;28;19972;-68
2023/08/19 21:41:20;;;;;;;;;;;;;;;19.06;100.00;101969.63;10588148;28;20286;-68
2023/08/19 21:46:22;;;;;;;;;;;;;;;18.84;100.00;101977.47;10588553;28;19924;-68
2023/08/19 21:51:24;;;;;;;;;;;;;;;18.84;100.00;101977.47;10569632;28;20389;-68
2023/08/19 21:56:27;;;;;;;;;;;;;;;18.79;100.00;101980.44;10587998;28;19932;-67
2023/08/19 22:01:29;;;;;;;;;;;;;;;18.73;100.00;101989.69;10587288;28;19923;-67
2023/08/19 22:06:31;;;;;;;;;;;;;;;18.70;100.00;101986.41;10587718;28;19931;-67
2023/08/19 22:11:33;;;;;;;;;;;;;;;18.73;100.00;101996.81;10586865;28;20285;-68
2023/08/19 22:16:36;;;;;;;;;;;;;;;18.65;100.00;102001.81;10586543;28;19927;-68
2023/08/19 22:21:38;;;;;;;;;;;;;;;18.80;100.00;101986.59;10587124;28;19973;-68
2023/08/19 22:26:40;;;;;;;;;;;;;;;18.75;100.00;101989.59;10586887;28;19930;-68
2023/08/19 22:31:43;;;;;;;;;;;;;;;18.63;100.00;101998.44;10586060;28;20370;-68
2023/08/19 22:36:46;;;;;;;;;;;;;;;18.55;100.00;102001.63;10585809;28;19934;-68
2023/08/19 22:41:48;;;;;;;;;;;;;;;18.52;100.00;101997.38;10586281;28;19930;-68
2023/08/19 22:46:50;;;;;;;;;;;;;;;18.60;100.00;101993.34;10584253;28;19924;-68
2023/08/19 22:51:52;;;;;;;;;;;;;;;18.45;100.00;101988.19;10585193;28;19930;-68
2023/08/19 22:56:54;;;;;;;;;;;;;;;18.43;100.00;101994.56;10585574;28;19923;-68
2023/08/19 23:01:57;;;;;;;;;;;;;;;18.33;100.00;101991.72;10585428;28;19970;-68
2023/08/19 23:06:59;;;;;;;;;;;;;;;18.36;100.00;101994.16;10584698;28;20386;-68
2023/08/19 23:12:07;;;;;;;;;;;;;;;18.35;100.00;101984.50;10584413;28;19924;-68
2023/08/19 23:17:09;;;;;;;;;;;;;;;18.30;100.00;102008.69;10583939;28;19923;-69
2023/08/19 23:22:12;;;;;;;;;;;;;;;18.19;100.00;102000.69;10584663;28;19934;-69
2023/08/19 23:27:14;;;;;;;;;;;;;;;18.16;100.00;101999.06;10583849;28;19930;-68
2023/08/19 23:32:16;;;;;;;;;;;;;;;18.12;100.00;102004.69;10583636;28;20286;-68
2023/08/19 23:37:18;;;;;;;;;;;;;;;18.04;100.00;102004.38;10583365;28;19946;-68
2023/08/19 23:42:21;;;;;;;;;;;;;;;18.10;100.00;102014.56;10583303;28;19924;-68
2023/08/19 23:47:23;;;;;;;;;;;;;;;18.08;100.00;102016.47;10583719;28;19930;-69
2023/08/19 23:52:25;;;;;;;;;;;;;;;18.05;100.00;102014.88;10583549;28;19935;-68
2023/08/19 23:57:28;;;;;;;;;;;;;;;17.95;100.00;102013.81;10582942;28;19923;-69
